FYGA4: White River At Fayetteville, AR

                                SHEF ID:       FYGA4     White River near Fayetteville, A
STATION TYPE: Stream Gauge

PRECIP STAGE RIV-FLOW WTR-TEMP DIS-OXY PH CONDUCT BAT-LOAD
in ft cfs F mg/l su umho/cm volt
Ccp-Rev Ccp-Rev Ccp-Rev Ccp-Rev Ccp-Rev Ccp-Rev Ccp-Rev Ccp-Rev
(America/Chicago)
11/25 00:00 0.00 2.54 149 58.35 8.36 7.49 186 12.57
11/25 01:00 0.00 2.55 151 58.30 8.32 7.49 189 12.49
11/25 02:00 0.00 2.56 154 58.21 8.38 7.50 190 12.49
11/25 03:00 0.00 2.57 156 58.17 8.39 7.52 194 12.49
11/25 04:00 0.00 2.58 159 58.15 8.38 7.53 193 12.41
11/25 05:00 0.00 2.57 156 58.14 8.39 7.52 193 12.41
11/25 06:00 0.00 2.56 154 58.14 8.39 7.52 189 12.41
11/25 07:00 0.00 2.56 154 58.10 8.40 7.51 186 12.41
11/25 08:00 0.00 2.56 154 58.05 8.48 7.50 181 12.41
11/25 09:00 0.00 2.54 149 58.12 8.53 7.51 178 12.97
11/25 10:00 0.00 2.53 146 58.46 8.78 7.55 177 13.60
11/25 11:00 0.00 2.53 146 58.59 8.82 7.55 172 13.13
11/25 12:00 0.00 2.51 141 58.77 8.94 7.57 178 13.21
11/25 13:00 0.00 2.52 144 58.86 8.97 7.55 168 13.21
11/25 14:00 0.00 2.52 144 58.91 8.94 7.56 164 13.29
11/25 15:00 0.00 2.53 146 58.96 8.97 7.56 169 13.21
11/25 16:00 0.00 2.54 149 58.89 8.88 7.54 169 13.05
11/25 17:00 0.00 2.53 146 58.66 8.78 7.53 168 12.97
11/25 18:00 0.00 2.55 151 58.41 8.69 7.50 169 12.81
11/25 19:00 0.00 2.54 149 58.17 8.65 7.49 167 12.73
11/25 20:00 0.00 2.57 156 57.83 8.65 7.48 165 12.73
11/25 21:00 0.00 2.63 172 57.65 8.73 7.49 162 12.73
11/25 22:00 0.00 2.66 181 57.47 8.79 7.48 159 12.65
11/25 23:00 0.00 2.68 186 57.20 8.83 7.47 157 12.65
Data processed at Wed 26Nov2025 05:10 GMT

NOTICE: If you are parsing this page

Please convert to using our Data API. Starting January 1st, 2026 we will be migrating to: https://water.usace.army.mil with modern pages rendered in JavaScript. You will no longer be able to scrape this page! CWMSDataAPI (CDA)

Timeseries IDs (TSIDs)

TSIDs used from left to right in the data table
FAYE.Precip-Inc.Total.1Hour.1Hour.Ccp-Rev
FAYE.Stage.Inst.1Hour.0.Ccp-Rev
FAYE.Flow.Inst.1Hour.0.Ccp-Rev
FAYE.Temp-Water.Inst.1Hour.0.Ccp-Rev
FAYE.Conc-DO.Inst.1Hour.0.Ccp-Rev
FAYE.pH.Inst.1Hour.0.Ccp-Rev
FAYE.Cond-Water.Inst.1Hour.0.Ccp-Rev
FAYE.Volt-Battery Load.Inst.1Hour.0.Ccp-Rev

                            

All information presented herein is the property of the government of the United States of America and may be revised or deleted at any time without prior notice. Dissemination of this information without the expressed written consent of the Public Affairs Office, Tulsa District U.S. Army Corps of Engineers is strictly prohibited. These data are gathered electronically and, as presented, have NOT undergone any form of quality control. These data are NOT guaranteed to be valid or correct.